Time;durP1;ratioP1;P1;durP2;ratioP2;P2;SDS_P1;SDS_P2;PMS_P1;PMS_P2;Temp;Humidity;BMP_temperature;BMP_pressure;BME280_temperature;BME280_humidity;BME280_pressure;Samples;Min_cycle;Max_cycle;Signal;HPM_P1;HPM_P2
2022/08/01 00:02:17;;;;;;;9.02;8.13;;;;;;;;;;5036563;28;20439;-83
2022/08/01 00:04:45;;;;;;;10.00;8.52;;;;;;;;;;5036545;28;20429;-83
2022/08/01 00:07:11;;;;;;;11.55;9.38;;;;;;;;;;5019668;28;20471;-84
2022/08/01 00:09:39;;;;;;;10.63;8.60;;;;;;;;;;5015467;28;20421;-84
2022/08/01 00:12:05;;;;;;;10.98;9.10;;;;;;;;;;5037131;28;20431;-85
2022/08/01 00:14:32;;;;;;;10.45;8.65;;;;;;;;;;5037490;28;20421;-85
2022/08/01 00:16:59;;;;;;;10.07;9.00;;;;;;;;;;5037274;28;20433;-84
2022/08/01 00:19:27;;;;;;;10.30;9.20;;;;;;;;;;5035746;28;20500;-84
2022/08/01 00:21:53;;;;;;;12.20;9.13;;;;;;;;;;5034709;28;20433;-84
2022/08/01 00:24:20;;;;;;;10.37;9.37;;;;;;;;;;5034594;28;20895;-83
2022/08/01 00:26:46;;;;;;;10.95;9.85;;;;;;;;;;5031413;28;20432;-85
2022/08/01 00:29:13;;;;;;;11.45;10.35;;;;;;;;;;5032427;28;20431;-84
2022/08/01 00:31:39;;;;;;;10.40;9.35;;;;;;;;;;5035015;28;21150;-86
2022/08/01 00:34:06;;;;;;;11.25;9.25;;;;;;;;;;5038084;28;20434;-85
2022/08/01 00:36:34;;;;;;;10.40;9.20;;;;;;;;;;5036761;28;20429;-86
2022/08/01 00:39:00;;;;;;;10.80;9.20;;;;;;;;;;5034900;28;20457;-85
2022/08/01 00:41:26;;;;;;;10.25;9.25;;;;;;;;;;5015211;28;20473;-84
2022/08/01 00:43:54;;;;;;;9.68;8.40;;;;;;;;;;5020240;28;20916;-84
2022/08/01 00:46:21;;;;;;;11.15;9.10;;;;;;;;;;5037325;28;20422;-82
2022/08/01 00:48:47;;;;;;;11.30;9.70;;;;;;;;;;5038770;28;20419;-85
2022/08/01 00:51:15;;;;;;;11.27;9.52;;;;;;;;;;5037740;28;20417;-84
2022/08/01 00:53:43;;;;;;;11.73;9.48;;;;;;;;;;5034317;28;20440;-84
2022/08/01 00:56:10;;;;;;;12.77;10.35;;;;;;;;;;5016418;28;20433;-86
2022/08/01 00:58:36;;;;;;;11.90;10.15;;;;;;;;;;5032972;28;20440;-85
2022/08/01 01:01:03;;;;;;;11.10;10.00;;;;;;;;;;5034746;28;20423;-85
2022/08/01 01:03:29;;;;;;;12.85;10.75;;;;;;;;;;5036717;28;20442;-86
2022/08/01 01:06:03;;;;;;;12.32;10.73;;;;;;;;;;5019166;28;20421;-85
2022/08/01 01:08:33;;;;;;;10.98;9.75;;;;;;;;;;5037266;28;20433;-85
2022/08/01 01:11:03;;;;;;;12.27;10.63;;;;;;;;;;5036894;28;20426;-87
2022/08/01 01:13:32;;;;;;;13.27;11.40;;;;;;;;;;5035004;28;20918;-85
2022/08/01 01:16:01;;;;;;;11.73;10.27;;;;;;;;;;5032692;28;20430;-85
2022/08/01 01:18:31;;;;;;;15.98;11.80;;;;;;;;;;5036282;28;20433;-85
2022/08/01 01:21:01;;;;;;;14.55;11.55;;;;;;;;;;5033909;28;20429;-85
2022/08/01 01:23:35;;;;;;;14.35;11.30;;;;;;;;;;5034160;28;20429;-83
2022/08/01 01:26:25;;;;;;;13.43;11.00;;;;;;;;;;5031768;28;20444;-84
2022/08/01 01:28:58;;;;;;;16.42;12.70;;;;;;;;;;5014719;28;20925;-82
2022/08/01 01:31:26;;;;;;;16.45;12.07;;;;;;;;;;5035554;28;20432;-84
2022/08/01 01:33:53;;;;;;;14.63;11.63;;;;;;;;;;5035871;28;20954;-85
2022/08/01 01:36:20;;;;;;;14.80;11.65;;;;;;;;;;5035800;28;20425;-84
2022/08/01 01:38:47;;;;;;;10.80;8.93;;;;;;;;;;5034172;28;20438;-85
2022/08/01 01:41:15;;;;;;;11.27;9.48;;;;;;;;;;5034142;28;20437;-84
2022/08/01 01:43:42;;;;;;;8.70;7.68;;;;;;;;;;5028095;28;20444;-85
2022/08/01 01:46:11;;;;;;;8.88;7.40;;;;;;;;;;5035520;28;20428;-85
2022/08/01 01:48:38;;;;;;;7.57;6.82;;;;;;;;;;5037997;28;20418;-85
2022/08/01 01:51:05;;;;;;;9.27;8.20;;;;;;;;;;5036613;28;20431;-86
2022/08/01 01:53:33;;;;;;;9.30;8.02;;;;;;;;;;5035793;28;20454;-82
2022/08/01 01:56:00;;;;;;;9.20;8.30;;;;;;;;;;5034353;28;20432;-84
2022/08/01 01:58:28;;;;;;;10.38;9.38;;;;;;;;;;5017372;28;20457;-85
2022/08/01 02:00:56;;;;;;;10.65;9.55;;;;;;;;;;5033340;28;20785;-85
2022/08/01 02:03:24;;;;;;;11.17;9.97;;;;;;;;;;5034729;28;20429;-84
2022/08/01 02:05:52;;;;;;;12.63;11.27;;;;;;;;;;5035719;28;20414;-83
2022/08/01 02:08:19;;;;;;;11.63;10.52;;;;;;;;;;5037643;28;20437;-84
2022/08/01 02:11:17;;;;;;;12.18;10.88;;;;;;;;;;5034383;28;20952;-85
2022/08/01 02:13:34;;;;;;;12.38;11.07;;;;;;;;;;5039394;28;20498;-84
2022/08/01 02:16:01;;;;;;;13.70;11.20;;;;;;;;;;5036563;28;20429;-86
2022/08/01 02:18:29;;;;;;;13.20;11.80;;;;;;;;;;5034443;28;20476;-85
2022/08/01 02:20:57;;;;;;;14.90;13.30;;;;;;;;;;5037262;28;20504;-85
2022/08/01 02:23:26;;;;;;;14.00;12.48;;;;;;;;;;5040363;28;20938;-84
2022/08/01 02:25:54;;;;;;;15.65;12.88;;;;;;;;;;5039438;28;20418;-86
2022/08/01 02:28:25;;;;;;;14.80;13.20;;;;;;;;;;5037912;28;20944;-85
2022/08/01 02:30:51;;;;;;;10.47;9.37;;;;;;;;;;5019224;28;20810;-82
2022/08/01 02:33:19;;;;;;;10.20;9.18;;;;;;;;;;5035154;28;20429;-84
2022/08/01 02:35:49;;;;;;;12.77;11.57;;;;;;;;;;5037286;28;20430;-84
2022/08/01 02:38:16;;;;;;;11.57;10.38;;;;;;;;;;5039657;28;20432;-83
2022/08/01 02:40:44;;;;;;;16.05;12.13;;;;;;;;;;5040795;28;20423;-84
2022/08/01 02:43:13;;;;;;;13.43;12.00;;;;;;;;;;5040732;28;20927;-83
2022/08/01 02:45:42;;;;;;;14.57;10.70;;;;;;;;;;5022301;28;20432;-84
2022/08/01 02:48:10;;;;;;;12.95;11.07;;;;;;;;;;5039380;28;20430;-85
2022/08/01 02:50:38;;;;;;;12.18;10.80;;;;;;;;;;5035700;28;20432;-84
2022/08/01 02:53:07;;;;;;;12.05;10.50;;;;;;;;;;5009032;28;20457;-84
2022/08/01 02:55:35;;;;;;;12.70;11.30;;;;;;;;;;5037043;28;20464;-83
2022/08/01 02:58:01;;;;;;;12.10;10.80;;;;;;;;;;5037376;28;20928;-85
2022/08/01 03:00:28;;;;;;;11.65;10.20;;;;;;;;;;5036277;28;20425;-83
2022/08/01 03:02:57;;;;;;;12.40;9.98;;;;;;;;;;5037268;28;20427;-84
2022/08/01 03:05:25;;;;;;;12.57;10.63;;;;;;;;;;5035383;28;20952;-84
2022/08/01 03:07:52;;;;;;;12.15;10.50;;;;;;;;;;5038752;28;20843;-84
2022/08/01 03:10:20;;;;;;;12.85;8.90;;;;;;;;;;5041049;28;20915;-83
2022/08/01 03:12:47;;;;;;;13.05;9.05;;;;;;;;;;4991351;28;20414;-83
2022/08/01 03:15:16;;;;;;;7.72;6.93;;;;;;;;;;5037118;28;20956;-85
2022/08/01 03:17:43;;;;;;;8.80;7.80;;;;;;;;;;5037846;28;20440;-84
2022/08/01 03:20:12;;;;;;;9.80;8.30;;;;;;;;;;5038070;28;20413;-85
2022/08/01 03:22:39;;;;;;;8.90;7.78;;;;;;;;;;5035786;28;20508;-84
2022/08/01 03:25:08;;;;;;;8.90;8.00;;;;;;;;;;5037337;28;20442;-85
2022/08/01 03:27:37;;;;;;;10.10;8.63;;;;;;;;;;5036770;28;20524;-83
2022/08/01 03:30:05;;;;;;;9.85;7.10;;;;;;;;;;5039258;28;20526;-85
2022/08/01 03:32:32;;;;;;;8.90;7.03;;;;;;;;;;5035194;28;20441;-83
2022/08/01 03:34:59;;;;;;;8.95;7.72;;;;;;;;;;5038469;28;20416;-84
2022/08/01 03:37:26;;;;;;;10.15;7.90;;;;;;;;;;5021393;28;20429;-85
2022/08/01 03:39:56;;;;;;;8.57;6.90;;;;;;;;;;5021798;28;20435;-85
2022/08/01 03:42:24;;;;;;;8.35;6.88;;;;;;;;;;5041579;28;20423;-84
2022/08/01 03:44:55;;;;;;;8.68;6.50;;;;;;;;;;5038270;28;20425;-83
2022/08/01 03:47:22;;;;;;;9.40;7.40;;;;;;;;;;5033779;28;20426;-84
2022/08/01 03:49:50;;;;;;;10.03;6.80;;;;;;;;;;5036745;28;20435;-87
2022/08/01 03:52:16;;;;;;;8.97;6.27;;;;;;;;;;5037941;28;20430;-83
2022/08/01 03:54:47;;;;;;;10.93;6.65;;;;;;;;;;5035587;28;20431;-82
2022/08/01 03:57:14;;;;;;;8.20;5.82;;;;;;;;;;5006720;28;20950;-83
2022/08/01 03:59:40;;;;;;;8.02;5.63;;;;;;;;;;5034353;28;20437;-85
2022/08/01 04:02:08;;;;;;;6.15;5.55;;;;;;;;;;5036376;28;20446;-83
2022/08/01 04:04:35;;;;;;;5.30;4.80;;;;;;;;;;5034449;28;20531;-82
2022/08/01 04:07:04;;;;;;;4.70;4.30;;;;;;;;;;5020324;28;20422;-82
2022/08/01 04:09:31;;;;;;;5.30;4.32;;;;;;;;;;5035035;28;20912;-84
2022/08/01 04:11:59;;;;;;;5.90;3.40;;;;;;;;;;5019964;28;20512;-83
2022/08/01 04:14:25;;;;;;;4.70;3.70;;;;;;;;;;5039684;28;20434;-82
2022/08/01 04:16:51;;;;;;;4.50;3.97;;;;;;;;;;5036078;28;20423;-83
2022/08/01 04:19:19;;;;;;;5.28;3.38;;;;;;;;;;5039306;28;20413;-84
2022/08/01 04:21:46;;;;;;;5.70;3.40;;;;;;;;;;5037750;28;20433;-83
2022/08/01 04:24:13;;;;;;;3.30;2.47;;;;;;;;;;5034249;28;20442;-84
2022/08/01 04:26:42;;;;;;;4.05;2.83;;;;;;;;;;5039863;28;20426;-84
2022/08/01 04:29:10;;;;;;;4.32;2.70;;;;;;;;;;5037658;28;20914;-84
2022/08/01 04:31:38;;;;;;;4.00;3.50;;;;;;;;;;5029365;28;20433;-83
2022/08/01 04:34:06;;;;;;;4.95;4.07;;;;;;;;;;5037587;28;20823;-84
2022/08/01 04:36:36;;;;;;;5.53;4.10;;;;;;;;;;5036780;28;20427;-84
2022/08/01 04:39:03;;;;;;;8.43;4.35;;;;;;;;;;5039274;28;21058;-84
2022/08/01 04:41:30;;;;;;;4.45;3.30;;;;;;;;;;5028938;28;20432;-84
2022/08/01 04:43:59;;;;;;;9.70;4.15;;;;;;;;;;5033703;28;20435;-83
2022/08/01 04:46:26;;;;;;;6.13;4.00;;;;;;;;;;5038090;28;20429;-85
2022/08/01 04:48:52;;;;;;;7.20;4.10;;;;;;;;;;5037636;28;20430;-84
2022/08/01 04:51:21;;;;;;;8.57;3.97;;;;;;;;;;5039698;28;20879;-84
2022/08/01 04:53:51;;;;;;;10.93;4.28;;;;;;;;;;5037210;28;20433;-83
2022/08/01 04:56:18;;;;;;;7.13;3.30;;;;;;;;;;5036623;28;20422;-83
2022/08/01 04:58:44;;;;;;;8.48;3.97;;;;;;;;;;5036029;28;20434;-84
2022/08/01 05:01:12;;;;;;;8.80;3.95;;;;;;;;;;5033067;28;20425;-83
2022/08/01 05:03:38;;;;;;;8.68;3.88;;;;;;;;;;5033536;28;20427;-82
2022/08/01 05:06:05;;;;;;;7.45;3.90;;;;;;;;;;5005925;28;20912;-85
2022/08/01 05:08:31;;;;;;;9.20;3.60;;;;;;;;;;5036578;28;20995;-84
2022/08/01 05:11:00;;;;;;;11.23;3.50;;;;;;;;;;5036571;28;20942;-83
2022/08/01 05:13:27;;;;;;;9.65;3.90;;;;;;;;;;5017227;28;20441;-84
2022/08/01 05:15:53;;;;;;;10.98;4.28;;;;;;;;;;5037715;28;20430;-83
2022/08/01 05:18:21;;;;;;;7.33;4.03;;;;;;;;;;5020199;28;20458;-83
2022/08/01 05:20:48;;;;;;;11.65;4.00;;;;;;;;;;5039083;28;20413;-82
2022/08/01 05:23:14;;;;;;;8.65;4.00;;;;;;;;;;5037467;28;20438;-84
2022/08/01 05:25:40;;;;;;;11.82;5.00;;;;;;;;;;5035222;28;20952;-83
2022/08/01 05:28:08;;;;;;;8.20;4.40;;;;;;;;;;5031054;28;20930;-85
2022/08/01 05:30:34;;;;;;;7.43;4.65;;;;;;;;;;5032422;28;20437;-84
2022/08/01 05:33:01;;;;;;;9.50;4.20;;;;;;;;;;5037637;28;20437;-81
2022/08/01 05:35:27;;;;;;;10.50;5.20;;;;;;;;;;5030945;28;20429;-83
2022/08/01 05:37:53;;;;;;;8.52;4.80;;;;;;;;;;5039944;28;20589;-83
2022/08/01 05:40:20;;;;;;;9.23;4.80;;;;;;;;;;5020459;28;20424;-85
2022/08/01 05:42:46;;;;;;;14.10;5.10;;;;;;;;;;5037242;28;20431;-83
2022/08/01 05:45:14;;;;;;;9.02;5.13;;;;;;;;;;5039147;28;20413;-83
2022/08/01 05:47:41;;;;;;;12.73;4.82;;;;;;;;;;5039871;28;20419;-83
2022/08/01 05:50:08;;;;;;;11.45;4.85;;;;;;;;;;5005541;28;20455;-83
2022/08/01 05:52:34;;;;;;;8.63;4.53;;;;;;;;;;5038316;28;20436;-83
2022/08/01 05:55:01;;;;;;;8.75;4.47;;;;;;;;;;5041166;28;20437;-83
2022/08/01 05:57:27;;;;;;;15.48;4.35;;;;;;;;;;5039220;28;20442;-84
2022/08/01 05:59:54;;;;;;;7.80;4.23;;;;;;;;;;5017786;28;20487;-82
2022/08/01 06:02:22;;;;;;;9.00;4.35;;;;;;;;;;5016410;28;20445;-85
2022/08/01 06:04:48;;;;;;;12.37;4.93;;;;;;;;;;5037869;28;20912;-81
2022/08/01 06:07:16;;;;;;;10.90;4.20;;;;;;;;;;5023052;28;20416;-83
2022/08/01 06:09:43;;;;;;;10.13;4.30;;;;;;;;;;5039400;28;20433;-83
2022/08/01 06:12:09;;;;;;;11.60;5.10;;;;;;;;;;5021373;28;20405;-83
2022/08/01 06:14:37;;;;;;;15.95;4.95;;;;;;;;;;5029185;28;20453;-83
2022/08/01 06:17:03;;;;;;;12.73;5.30;;;;;;;;;;5038952;28;20432;-81
2022/08/01 06:19:31;;;;;;;14.03;4.63;;;;;;;;;;5031486;28;20443;-83
2022/08/01 06:21:57;;;;;;;12.73;5.25;;;;;;;;;;5038067;28;20413;-82
2022/08/01 06:24:24;;;;;;;12.52;4.88;;;;;;;;;;5039656;28;21073;-84
2022/08/01 06:26:50;;;;;;;13.10;5.00;;;;;;;;;;5039111;28;20419;-82
2022/08/01 06:29:16;;;;;;;15.40;5.10;;;;;;;;;;5036164;28;20440;-84
2022/08/01 06:31:43;;;;;;;14.68;5.35;;;;;;;;;;5038390;28;20416;-83
2022/08/01 06:34:09;;;;;;;12.07;5.47;;;;;;;;;;5039229;28;20415;-83
2022/08/01 06:36:37;;;;;;;17.88;5.88;;;;;;;;;;5035009;28;20437;-84
2022/08/01 06:39:04;;;;;;;13.63;5.18;;;;;;;;;;5037159;28;20434;-83
2022/08/01 06:41:30;;;;;;;11.60;5.28;;;;;;;;;;5020891;28;20413;-82
2022/08/01 06:43:57;;;;;;;14.10;5.45;;;;;;;;;;5036204;28;20442;-83
2022/08/01 06:46:24;;;;;;;16.08;6.18;;;;;;;;;;5005146;28;20961;-83
2022/08/01 06:48:51;;;;;;;11.73;5.00;;;;;;;;;;5037561;28;20423;-84
2022/08/01 06:51:19;;;;;;;13.68;5.25;;;;;;;;;;5037550;28;20430;-83
2022/08/01 06:53:47;;;;;;;15.10;5.68;;;;;;;;;;5037316;28;20433;-84
2022/08/01 06:56:13;;;;;;;12.00;5.45;;;;;;;;;;5040451;28;20980;-82
2022/08/01 06:58:41;;;;;;;12.33;4.90;;;;;;;;;;5040132;28;20441;-83
2022/08/01 07:01:07;;;;;;;10.77;4.80;;;;;;;;;;5009213;28;20457;-83
2022/08/01 07:03:34;;;;;;;12.90;5.10;;;;;;;;;;5041543;28;20413;-83
2022/08/01 07:06:01;;;;;;;12.73;5.20;;;;;;;;;;5024724;28;20423;-83
2022/08/01 07:08:28;;;;;;;11.48;4.63;;;;;;;;;;5040378;28;20440;-84
2022/08/01 07:10:59;;;;;;;14.77;4.83;;;;;;;;;;5041078;28;20421;-84
2022/08/01 07:13:25;;;;;;;14.48;5.40;;;;;;;;;;5042335;28;20891;-83
2022/08/01 07:15:53;;;;;;;14.82;4.85;;;;;;;;;;5037852;28;20434;-83
2022/08/01 07:18:20;;;;;;;13.63;4.40;;;;;;;;;;5041462;28;20436;-83
2022/08/01 07:20:47;;;;;;;14.50;4.80;;;;;;;;;;5038330;28;20430;-83
2022/08/01 07:23:14;;;;;;;12.90;4.78;;;;;;;;;;5023550;28;20492;-83
2022/08/01 07:25:41;;;;;;;14.82;4.70;;;;;;;;;;5009403;28;20422;-83
2022/08/01 07:28:09;;;;;;;13.38;5.40;;;;;;;;;;5041355;28;20419;-83
2022/08/01 07:30:35;;;;;;;17.90;5.50;;;;;;;;;;5039682;28;20512;-83
2022/08/01 07:33:02;;;;;;;15.07;4.70;;;;;;;;;;5041623;28;20423;-83
2022/08/01 07:35:28;;;;;;;11.57;4.22;;;;;;;;;;5022698;28;20426;-82
2022/08/01 07:37:55;;;;;;;14.15;4.72;;;;;;;;;;5039061;28;20427;-83
2022/08/01 07:40:21;;;;;;;16.20;4.60;;;;;;;;;;5007211;28;20422;-83
2022/08/01 07:42:48;;;;;;;9.27;4.38;;;;;;;;;;5038874;28;20442;-83
2022/08/01 07:45:15;;;;;;;11.57;4.65;;;;;;;;;;5039757;28;20427;-83
2022/08/01 07:47:42;;;;;;;19.63;5.85;;;;;;;;;;5039208;28;20439;-82
2022/08/01 07:50:09;;;;;;;17.20;5.22;;;;;;;;;;5039885;28;20419;-82
2022/08/01 07:52:35;;;;;;;13.25;4.70;;;;;;;;;;5040975;28;20439;-82
2022/08/01 07:55:02;;;;;;;14.70;5.03;;;;;;;;;;5041669;28;20422;-83
2022/08/01 07:57:28;;;;;;;15.15;4.70;;;;;;;;;;5040919;28;20436;-83
2022/08/01 07:59:55;;;;;;;14.45;4.30;;;;;;;;;;5007811;28;20467;-82
2022/08/01 08:02:22;;;;;;;14.40;4.72;;;;;;;;;;5040855;28;20931;-82
2022/08/01 08:04:50;;;;;;;15.73;4.60;;;;;;;;;;5038998;28;20439;-82
2022/08/01 08:07:16;;;;;;;12.60;4.43;;;;;;;;;;5037458;28;20431;-82
2022/08/01 08:09:43;;;;;;;11.95;4.10;;;;;;;;;;5041241;28;20413;-81
2022/08/01 08:12:10;;;;;;;15.52;4.78;;;;;;;;;;5040192;28;20787;-83
2022/08/01 08:14:37;;;;;;;12.32;4.57;;;;;;;;;;5037964;28;20440;-81
2022/08/01 08:17:03;;;;;;;12.82;4.75;;;;;;;;;;5040469;28;20419;-83
2022/08/01 08:19:33;;;;;;;14.52;5.05;;;;;;;;;;5040449;28;20414;-82
2022/08/01 08:21:59;;;;;;;13.98;4.78;;;;;;;;;;5036755;28;20422;-81
2022/08/01 08:24:27;;;;;;;11.00;4.78;;;;;;;;;;5019800;28;20430;-83
2022/08/01 08:26:55;;;;;;;17.70;4.77;;;;;;;;;;5022891;28;20417;-81
2022/08/01 08:29:22;;;;;;;14.23;4.32;;;;;;;;;;5037941;28;20428;-82
2022/08/01 08:31:50;;;;;;;12.33;3.70;;;;;;;;;;5021504;28;20417;-83
2022/08/01 08:34:17;;;;;;;13.10;4.60;;;;;;;;;;5040077;28;20426;-82
2022/08/01 08:36:44;;;;;;;12.60;3.70;;;;;;;;;;5039278;28;20428;-82
2022/08/01 08:39:11;;;;;;;13.43;3.92;;;;;;;;;;5038777;28;20929;-81
2022/08/01 08:41:37;;;;;;;16.35;4.40;;;;;;;;;;5039559;28;20497;-84
2022/08/01 08:44:04;;;;;;;10.30;3.58;;;;;;;;;;5036887;28;20447;-83
2022/08/01 08:46:33;;;;;;;13.35;4.20;;;;;;;;;;5008076;28;20976;-82
2022/08/01 08:49:00;;;;;;;13.60;4.05;;;;;;;;;;5038159;28;20431;-82
2022/08/01 08:51:27;;;;;;;12.48;3.47;;;;;;;;;;5036746;28;20430;-82
2022/08/01 08:53:56;;;;;;;9.27;3.20;;;;;;;;;;5039139;28;20439;-83
2022/08/01 08:56:24;;;;;;;13.32;4.00;;;;;;;;;;5039976;28;20458;-82
2022/08/01 08:58:51;;;;;;;13.32;3.40;;;;;;;;;;5020096;28;20431;-82
2022/08/01 09:01:18;;;;;;;10.55;3.53;;;;;;;;;;5040452;28;20429;-82
2022/08/01 09:03:45;;;;;;;15.70;3.80;;;;;;;;;;5038517;28;20447;-85
2022/08/01 09:06:11;;;;;;;11.45;3.70;;;;;;;;;;5039767;28;20415;-81
2022/08/01 09:08:38;;;;;;;11.55;3.42;;;;;;;;;;5040759;28;20496;-81
2022/08/01 09:11:05;;;;;;;16.05;4.03;;;;;;;;;;5023332;28;20932;-83
2022/08/01 09:13:32;;;;;;;12.73;3.67;;;;;;;;;;5037029;28;20927;-83
2022/08/01 09:16:00;;;;;;;14.85;3.33;;;;;;;;;;5040108;28;20464;-82
2022/08/01 09:18:31;;;;;;;12.18;3.50;;;;;;;;;;5032780;28;20423;-84
2022/08/01 09:21:08;;;;;;;10.23;3.10;;;;;;;;;;5039189;28;20820;-82
2022/08/01 09:23:35;;;;;;;7.75;2.67;;;;;;;;;;5040082;28;20417;-85
2022/08/01 09:26:01;;;;;;;9.38;3.53;;;;;;;;;;5039755;28;21093;-81
2022/08/01 09:28:29;;;;;;;10.15;3.50;;;;;;;;;;5034905;28;20939;-83
2022/08/01 09:30:57;;;;;;;11.32;3.20;;;;;;;;;;5039314;28;20417;-85
2022/08/01 09:33:23;;;;;;;14.02;3.60;;;;;;;;;;5035442;28;20434;-83
2022/08/01 09:35:54;;;;;;;11.55;3.20;;;;;;;;;;5021786;28;20424;-84
2022/08/01 09:38:22;;;;;;;9.43;3.45;;;;;;;;;;5039170;28;20437;-83
2022/08/01 09:40:49;;;;;;;11.57;2.97;;;;;;;;;;5019686;28;20418;-83
2022/08/01 09:43:16;;;;;;;9.82;2.92;;;;;;;;;;5032995;28;20502;-83
2022/08/01 09:45:44;;;;;;;10.20;3.00;;;;;;;;;;5037027;28;20425;-83
2022/08/01 09:48:11;;;;;;;10.88;2.85;;;;;;;;;;5039602;28;20418;-84
2022/08/01 09:50:42;;;;;;;10.63;3.00;;;;;;;;;;5019860;28;20433;-81
2022/08/01 09:53:09;;;;;;;7.45;2.70;;;;;;;;;;5041102;28;20489;-84
2022/08/01 09:55:35;;;;;;;10.43;3.10;;;;;;;;;;5038960;28;20423;-81
2022/08/01 09:58:04;;;;;;;9.55;2.33;;;;;;;;;;5035784;28;20441;-82
2022/08/01 10:00:30;;;;;;;9.77;3.40;;;;;;;;;;5036579;28;20468;-82
2022/08/01 10:02:59;;;;;;;10.80;2.80;;;;;;;;;;5039833;28;20439;-82
2022/08/01 10:05:32;;;;;;;12.77;3.30;;;;;;;;;;5039722;28;20420;-83
2022/08/01 10:07:59;;;;;;;13.85;3.75;;;;;;;;;;5040686;28;20477;-82
2022/08/01 10:10:28;;;;;;;12.00;3.50;;;;;;;;;;5040255;28;20421;-81
2022/08/01 10:12:56;;;;;;;9.90;3.35;;;;;;;;;;5040200;28;20439;-83
2022/08/01 10:15:22;;;;;;;12.60;3.65;;;;;;;;;;5039489;28;20418;-83
2022/08/01 10:17:53;;;;;;;11.27;2.90;;;;;;;;;;5038408;28;20429;-82
2022/08/01 10:20:22;;;;;;;11.10;3.10;;;;;;;;;;5039916;28;20413;-82
2022/08/01 10:22:49;;;;;;;9.25;2.70;;;;;;;;;;5039431;28;20430;-82
2022/08/01 10:25:17;;;;;;;7.95;3.00;;;;;;;;;;5039005;28;20416;-83
2022/08/01 10:27:45;;;;;;;11.05;2.97;;;;;;;;;;5037906;28;20426;-81
2022/08/01 10:30:12;;;;;;;12.80;3.28;;;;;;;;;;5021958;28;20417;-81
2022/08/01 10:32:41;;;;;;;14.65;3.22;;;;;;;;;;5044023;28;20417;-81
2022/08/01 10:35:09;;;;;;;11.18;2.97;;;;;;;;;;5041525;28;20427;-81
2022/08/01 10:37:36;;;;;;;10.50;2.92;;;;;;;;;;5043351;28;20425;-81
2022/08/01 10:40:04;;;;;;;10.55;3.17;;;;;;;;;;5042099;28;20414;-82
2022/08/01 10:42:31;;;;;;;9.23;2.80;;;;;;;;;;5040418;28;20432;-82
2022/08/01 10:44:58;;;;;;;11.40;3.20;;;;;;;;;;5041447;28;20410;-82
2022/08/01 10:47:27;;;;;;;10.70;3.50;;;;;;;;;;5042191;28;20503;-82
2022/08/01 10:49:57;;;;;;;8.55;2.40;;;;;;;;;;5042701;28;20504;-83
2022/08/01 10:52:23;;;;;;;8.48;3.08;;;;;;;;;;5021515;28;20461;-83
2022/08/01 10:55:01;;;;;;;9.00;2.70;;;;;;;;;;5042269;28;20898;-82
2022/08/01 10:57:41;;;;;;;9.57;3.00;;;;;;;;;;5041415;28;20833;-82
2022/08/01 11:00:09;;;;;;;10.88;2.90;;;;;;;;;;5042304;28;20424;-82
2022/08/01 11:02:40;;;;;;;10.93;2.78;;;;;;;;;;5042730;28;20422;-82
2022/08/01 11:05:10;;;;;;;9.45;2.80;;;;;;;;;;5040269;28;20417;-83
2022/08/01 11:07:41;;;;;;;11.70;3.20;;;;;;;;;;5040477;28;20434;-81
2022/08/01 11:10:10;;;;;;;8.20;2.40;;;;;;;;;;5041951;28;20410;-82
2022/08/01 11:12:40;;;;;;;9.45;2.80;;;;;;;;;;5039845;28;20439;-84
2022/08/01 11:15:27;;;;;;;7.85;2.95;;;;;;;;;;5043042;28;20418;-82
2022/08/01 11:17:54;;;;;;;10.02;2.90;;;;;;;;;;5039069;28;20491;-83
2022/08/01 11:20:21;;;;;;;5.82;2.67;;;;;;;;;;5043050;28;20963;-82
2022/08/01 11:23:06;;;;;;;9.60;2.60;;;;;;;;;;5042237;28;20779;-81
2022/08/01 11:25:48;;;;;;;8.93;2.60;;;;;;;;;;5038743;28;20456;-83
2022/08/01 11:28:21;;;;;;;8.00;2.83;;;;;;;;;;5040563;28;20427;-83
2022/08/01 11:30:49;;;;;;;8.95;2.45;;;;;;;;;;5022635;28;20472;-82
2022/08/01 11:33:16;;;;;;;8.18;2.60;;;;;;;;;;5040333;28;20438;-82
2022/08/01 11:36:15;;;;;;;7.00;3.00;;;;;;;;;;5039847;28;20470;-84
2022/08/01 11:38:43;;;;;;;6.22;2.15;;;;;;;;;;5041992;28;20435;-82
2022/08/01 11:41:12;;;;;;;8.43;2.63;;;;;;;;;;5042167;28;20427;-82
2022/08/01 11:43:54;;;;;;;6.35;2.50;;;;;;;;;;5040624;28;20427;-82
2022/08/01 11:46:41;;;;;;;9.05;2.15;;;;;;;;;;5042011;28;20419;-82
2022/08/01 11:49:23;;;;;;;5.68;2.30;;;;;;;;;;5039248;28;20426;-82
2022/08/01 11:51:57;;;;;;;9.88;2.50;;;;;;;;;;5037167;28;20446;-82
2022/08/01 11:54:25;;;;;;;10.27;2.60;;;;;;;;;;5042343;28;20800;-82
2022/08/01 11:56:54;;;;;;;8.15;2.50;;;;;;;;;;5040358;28;20896;-82
2022/08/01 11:59:21;;;;;;;8.65;2.78;;;;;;;;;;5039608;28;20943;-81
2022/08/01 12:01:49;;;;;;;11.05;2.83;;;;;;;;;;5041495;28;20452;-82
2022/08/01 12:04:16;;;;;;;8.30;2.70;;;;;;;;;;5040151;28;20434;-82
2022/08/01 12:06:42;;;;;;;5.50;2.47;;;;;;;;;;5038423;28;20425;-82
2022/08/01 12:09:15;;;;;;;6.95;2.67;;;;;;;;;;5040947;28;20787;-82
2022/08/01 12:11:42;;;;;;;10.00;2.55;;;;;;;;;;5040048;28;20419;-82
2022/08/01 12:14:08;;;;;;;8.95;2.70;;;;;;;;;;5038893;28;20443;-82
2022/08/01 12:16:35;;;;;;;8.38;2.95;;;;;;;;;;5022920;28;20422;-82
2022/08/01 12:19:03;;;;;;;8.13;2.30;;;;;;;;;;5040828;28;20427;-81
2022/08/01 12:21:29;;;;;;;9.00;3.00;;;;;;;;;;5007280;28;20415;-82
2022/08/01 12:24:01;;;;;;;8.63;3.10;;;;;;;;;;5040233;28;20438;-81
2022/08/01 12:26:39;;;;;;;8.30;2.90;;;;;;;;;;5040204;28;20438;-82
2022/08/01 12:29:06;;;;;;;8.07;2.70;;;;;;;;;;5041690;28;20423;-82
2022/08/01 12:31:33;;;;;;;9.68;2.78;;;;;;;;;;5040236;28;20486;-81
2022/08/01 12:33:59;;;;;;;9.43;2.75;;;;;;;;;;5040708;28;20421;-82
2022/08/01 12:36:30;;;;;;;7.50;2.38;;;;;;;;;;5041080;28;20977;-82
2022/08/01 12:39:00;;;;;;;8.27;2.60;;;;;;;;;;5038934;28;20439;-82
2022/08/01 12:41:26;;;;;;;7.80;2.70;;;;;;;;;;5038122;28;21111;-82
2022/08/01 12:43:53;;;;;;;9.23;2.90;;;;;;;;;;5041006;28;20419;-83
2022/08/01 12:46:21;;;;;;;9.88;3.10;;;;;;;;;;5040143;28;20433;-82
2022/08/01 12:48:47;;;;;;;9.27;2.22;;;;;;;;;;5022724;28;20416;-82
2022/08/01 12:51:14;;;;;;;6.35;2.80;;;;;;;;;;5040173;28;20417;-83
2022/08/01 12:53:42;;;;;;;7.80;2.85;;;;;;;;;;5040724;28;20950;-82
2022/08/01 12:56:09;;;;;;;7.90;2.50;;;;;;;;;;5037868;28;20427;-82
2022/08/01 12:58:36;;;;;;;8.32;2.90;;;;;;;;;;5041052;28;20409;-82
2022/08/01 13:01:06;;;;;;;7.00;2.40;;;;;;;;;;5040508;28;20426;-82
2022/08/01 13:03:32;;;;;;;7.60;2.58;;;;;;;;;;5038783;28;20433;-82
2022/08/01 13:06:00;;;;;;;8.30;2.67;;;;;;;;;;5038803;28;20419;-82
2022/08/01 13:08:30;;;;;;;9.43;2.70;;;;;;;;;;5020700;28;20941;-82
2022/08/01 13:11:04;;;;;;;7.22;2.60;;;;;;;;;;5021617;28;20423;-83
2022/08/01 13:13:38;;;;;;;10.45;2.67;;;;;;;;;;5022350;28;20439;-82
2022/08/01 13:16:06;;;;;;;7.80;2.30;;;;;;;;;;5035175;28;20433;-83
2022/08/01 13:18:33;;;;;;;4.20;2.72;;;;;;;;;;5040282;28;20471;-82
2022/08/01 13:21:10;;;;;;;10.18;2.83;;;;;;;;;;5005228;28;20425;-82
2022/08/01 13:23:37;;;;;;;8.93;3.10;;;;;;;;;;5040343;28;20445;-83
2022/08/01 13:26:05;;;;;;;9.02;2.95;;;;;;;;;;5006277;28;20422;-83
2022/08/01 13:28:32;;;;;;;7.32;2.67;;;;;;;;;;5041815;28;20462;-82
2022/08/01 13:31:00;;;;;;;8.68;2.83;;;;;;;;;;5039304;28;20422;-82
2022/08/01 13:33:28;;;;;;;8.60;3.20;;;;;;;;;;5041115;28;20956;-82
2022/08/01 13:35:55;;;;;;;7.57;2.70;;;;;;;;;;5038816;28;20422;-82
2022/08/01 13:39:40;;;;;;;6.28;2.50;;;;;;;;;;5039154;28;20434;-82
2022/08/01 13:41:10;;;;;;;6.60;2.50;;;;;;;;;;5039740;28;20521;-81
2022/08/01 13:43:36;;;;;;;9.55;2.70;;;;;;;;;;5040129;28;20418;-83
2022/08/01 13:46:04;;;;;;;7.00;2.50;;;;;;;;;;5041356;28;20423;-82
2022/08/01 13:48:31;;;;;;;4.75;2.20;;;;;;;;;;5041202;28;20859;-82
2022/08/01 13:50:58;;;;;;;8.48;2.70;;;;;;;;;;5038720;28;20421;-82
2022/08/01 13:53:24;;;;;;;8.68;2.88;;;;;;;;;;5039397;28;20450;-82
2022/08/01 13:55:50;;;;;;;9.83;3.00;;;;;;;;;;5040003;28;20419;-83
2022/08/01 13:58:18;;;;;;;6.60;2.75;;;;;;;;;;5039431;28;20422;-82
2022/08/01 14:00:45;;;;;;;8.87;3.60;;;;;;;;;;5040513;28;20417;-82
2022/08/01 14:03:11;;;;;;;7.03;3.00;;;;;;;;;;5040827;28;20945;-82
2022/08/01 14:05:39;;;;;;;6.03;2.70;;;;;;;;;;5043253;28;20448;-81
2022/08/01 14:08:05;;;;;;;9.48;3.00;;;;;;;;;;5042012;28;20435;-81
2022/08/01 14:10:32;;;;;;;6.07;2.60;;;;;;;;;;5044261;28;20414;-81
2022/08/01 14:12:58;;;;;;;11.23;3.45;;;;;;;;;;5044088;28;20422;-81
2022/08/01 14:15:26;;;;;;;8.82;2.75;;;;;;;;;;5044493;28;20419;-82
2022/08/01 14:17:52;;;;;;;10.13;3.30;;;;;;;;;;5044171;28;20440;-82
2022/08/01 14:20:19;;;;;;;7.28;3.10;;;;;;;;;;5045911;28;20422;-82
2022/08/01 14:22:46;;;;;;;7.73;2.77;;;;;;;;;;5042542;28;20432;-82
2022/08/01 14:25:12;;;;;;;7.50;2.90;;;;;;;;;;5047465;28;20424;-82
2022/08/01 14:27:41;;;;;;;7.82;2.65;;;;;;;;;;5047391;28;20413;-82
2022/08/01 14:30:08;;;;;;;7.60;2.90;;;;;;;;;;5027186;28;20411;-83
2022/08/01 14:32:35;;;;;;;5.30;2.30;;;;;;;;;;5042533;28;20447;-82
2022/08/01 14:35:02;;;;;;;7.63;2.97;;;;;;;;;;5043590;28;20427;-83
2022/08/01 14:37:29;;;;;;;9.07;2.70;;;;;;;;;;5036164;28;20449;-82
2022/08/01 14:39:56;;;;;;;5.20;2.40;;;;;;;;;;5045460;28;20438;-83